Time;durP1;ratioP1;P1;durP2;ratioP2;P2;SDS_P1;SDS_P2;PMS_P1;PMS_P2;Temp;Humidity;BMP_temperature;BMP_pressure;BME280_temperature;BME280_humidity;BME280_pressure;Samples;Min_cycle;Max_cycle;Signal;HPM_P1;HPM_P2
2022/07/09 00:00:21;;;;;;;6.58;2.35;;;;;;;18.37;67.64;99111.49;1622305;85;20997;-91
2022/07/09 00:02:49;;;;;;;4.70;2.35;;;;;;;18.33;68.13;99112.13;1645160;86;21109;-91
2022/07/09 00:05:16;;;;;;;4.12;2.37;;;;;;;18.35;67.91;99114.68;1645938;87;21076;-92
2022/07/09 00:07:43;;;;;;;5.03;2.60;;;;;;;18.36;67.94;99111.94;1646636;87;21529;-91
2022/07/09 00:10:11;;;;;;;5.78;2.98;;;;;;;18.39;67.85;99110.46;1654567;87;20974;-92
2022/07/09 00:12:38;;;;;;;5.50;2.55;;;;;;;18.41;68.09;99105.95;1644284;87;21534;-92
2022/07/09 00:15:06;;;;;;;4.28;2.52;;;;;;;18.45;67.77;99102.69;1646073;86;21029;-91
2022/07/09 00:17:32;;;;;;;6.15;2.65;;;;;;;18.46;67.98;99107.00;1670447;85;20959;-92
2022/07/09 00:20:01;;;;;;;3.92;2.65;;;;;;;18.50;68.45;99103.25;1644061;87;21013;-91
2022/07/09 00:22:28;;;;;;;4.42;2.80;;;;;;;18.52;67.95;99107.95;1646616;87;21044;-91
2022/07/09 00:24:55;;;;;;;7.20;2.60;;;;;;;18.54;68.04;99103.93;1642982;87;21024;-91
2022/07/09 00:27:22;;;;;;;5.22;2.83;;;;;;;18.55;68.63;99104.33;1634811;85;21048;-92
2022/07/09 00:29:48;;;;;;;3.95;2.37;;;;;;;18.54;69.21;99106.56;1646448;87;21493;-92
2022/07/09 00:32:16;;;;;;;4.10;2.55;;;;;;;18.54;68.81;99103.93;1634545;87;21004;-88
2022/07/09 00:34:42;;;;;;;10.78;2.92;;;;;;;18.53;68.37;99096.98;1650647;87;21015;-93
2022/07/09 00:37:09;;;;;;;4.35;2.55;;;;;;;18.49;68.37;99095.83;1645868;87;21000;-92
2022/07/09 00:39:37;;;;;;;4.40;2.60;;;;;;;18.43;67.86;99092.72;1645060;87;21073;-90
2022/07/09 00:42:08;;;;;;;5.15;2.60;;;;;;;18.40;67.99;99091.56;1646110;85;20992;-92
2022/07/09 00:44:36;;;;;;;6.50;2.83;;;;;;;18.37;68.70;99094.38;1659378;86;21016;-92
2022/07/09 00:47:06;;;;;;;5.20;2.80;;;;;;;18.36;69.34;99092.67;1660228;85;20970;-91
2022/07/09 00:49:38;;;;;;;4.00;2.80;;;;;;;18.37;68.93;99096.54;1658532;85;21007;-91
2022/07/09 00:52:06;;;;;;;6.10;2.83;;;;;;;18.34;69.05;99095.38;1653165;85;21860;-92
2022/07/09 00:54:35;;;;;;;5.80;2.80;;;;;;;18.32;68.41;99093.78;1656370;86;21015;-93
2022/07/09 00:57:06;;;;;;;6.70;2.75;;;;;;;18.27;68.44;99100.16;1657860;86;21428;-92
2022/07/09 00:59:34;;;;;;;7.33;2.50;;;;;;;18.27;68.99;99094.06;1656339;87;21013;-92
2022/07/09 01:02:02;;;;;;;13.03;2.92;;;;;;;18.27;69.75;99093.58;1658465;86;20986;-91
2022/07/09 01:04:29;;;;;;;13.55;2.72;;;;;;;18.27;69.43;99092.74;1659852;86;21557;-91
2022/07/09 01:06:57;;;;;;;6.60;2.58;;;;;;;18.26;70.12;99087.95;1659769;86;21006;-91
2022/07/09 01:09:26;;;;;;;5.75;2.50;;;;;;;18.26;69.31;99084.45;1660125;86;21077;-92
2022/07/09 01:11:53;;;;;;;11.10;2.55;;;;;;;18.27;69.39;99088.31;1659885;86;21073;-92
2022/07/09 01:14:20;;;;;;;5.62;2.95;;;;;;;18.31;70.16;99090.31;1621524;88;21014;-91
2022/07/09 01:16:47;;;;;;;5.80;2.25;;;;;;;18.35;70.07;99081.78;1621477;88;21011;-91
2022/07/09 01:19:13;;;;;;;6.65;2.70;;;;;;;18.38;70.33;99084.22;1652098;86;21022;-91
2022/07/09 01:21:40;;;;;;;6.90;2.50;;;;;;;18.38;70.15;99076.33;1660536;86;21068;-92
2022/07/09 01:24:07;;;;;;;5.67;2.35;;;;;;;18.40;69.91;99075.33;1660911;86;21557;-92
2022/07/09 01:26:35;;;;;;;5.28;2.60;;;;;;;18.40;69.93;99081.03;1661643;86;21070;-91
2022/07/09 01:29:02;;;;;;;4.42;2.90;;;;;;;18.40;70.28;99080.59;1662728;86;21068;-92
2022/07/09 01:31:29;;;;;;;4.45;2.52;;;;;;;18.40;70.51;99081.91;1660434;86;20978;-91
2022/07/09 01:33:56;;;;;;;6.92;3.58;;;;;;;18.44;69.98;99077.28;1653755;85;20996;-92
2022/07/09 01:36:23;;;;;;;5.10;2.62;;;;;;;18.42;69.99;99078.72;1650825;86;20983;-92
2022/07/09 01:38:50;;;;;;;11.57;3.27;;;;;;;18.41;70.68;99079.64;1665950;86;21025;-91
2022/07/09 01:41:17;;;;;;;8.33;3.30;;;;;;;18.40;70.47;99075.77;1662466;86;21024;-91
2022/07/09 01:43:44;;;;;;;9.23;3.02;;;;;;;18.39;69.61;99081.51;1660672;85;21051;-91
2022/07/09 01:46:11;;;;;;;6.42;2.67;;;;;;;18.37;70.32;99073.33;1675089;85;21501;-91
2022/07/09 01:48:42;;;;;;;7.95;2.90;;;;;;;18.34;70.49;99074.33;1659736;85;21010;-91
2022/07/09 01:51:06;;;;;;;4.97;2.50;;;;;;;18.31;70.36;99071.89;1654368;86;21031;-91
2022/07/09 01:53:34;;;;;;;6.30;2.62;;;;;;;18.31;71.10;99071.05;1648495;85;20974;-91
2022/07/09 01:56:06;;;;;;;8.28;3.00;;;;;;;18.29;69.88;99077.72;1655142;86;21062;-91
2022/07/09 01:58:34;;;;;;;4.20;2.40;;;;;;;18.25;69.16;99074.88;1653080;86;21023;-91
2022/07/09 02:01:02;;;;;;;7.97;2.50;;;;;;;18.22;70.17;99069.77;1652828;86;21563;-92
2022/07/09 02:03:29;;;;;;;4.70;2.62;;;;;;;18.21;70.49;99074.67;1652426;86;21030;-91
2022/07/09 02:05:56;;;;;;;4.65;2.60;;;;;;;18.21;70.47;99075.98;1647968;85;21017;-89
2022/07/09 02:08:23;;;;;;;4.17;2.58;;;;;;;18.19;69.87;99068.66;1670090;86;21466;-92
2022/07/09 02:10:50;;;;;;;7.95;2.90;;;;;;;18.16;69.90;99070.13;1669799;86;21038;-91
2022/07/09 02:13:18;;;;;;;5.03;2.67;;;;;;;18.11;70.44;99075.66;1651385;86;21511;-91
2022/07/09 02:15:44;;;;;;;4.25;2.70;;;;;;;18.10;70.09;99081.84;1662412;86;21060;-93
2022/07/09 02:18:12;;;;;;;5.00;2.45;;;;;;;18.11;70.58;99078.77;1667332;86;20994;-91
2022/07/09 02:20:39;;;;;;;4.75;2.45;;;;;;;18.11;69.77;99080.08;1666195;86;21026;-89
2022/07/09 02:23:06;;;;;;;3.80;2.67;;;;;;;18.10;70.31;99084.47;1666587;86;21055;-85
2022/07/09 02:25:33;;;;;;;5.25;2.90;;;;;;;18.11;70.18;99081.39;1632611;88;21037;-92
2022/07/09 02:28:00;;;;;;;6.17;2.90;;;;;;;18.10;70.25;99081.84;1663237;86;21022;-91
2022/07/09 02:30:27;;;;;;;7.03;2.85;;;;;;;18.09;70.09;99084.95;1661633;86;21005;-91
2022/07/09 02:32:53;;;;;;;8.40;2.62;;;;;;;18.12;70.55;99080.44;1661089;86;21080;-91
2022/07/09 02:35:20;;;;;;;4.50;2.65;;;;;;;18.16;70.24;99079.34;1708031;84;20994;-91
2022/07/09 02:37:47;;;;;;;4.28;2.33;;;;;;;18.11;70.31;99074.82;1707798;84;21018;-90
2022/07/09 02:40:14;;;;;;;8.28;2.72;;;;;;;18.11;70.27;99081.39;1705268;84;21018;-91
2022/07/09 02:42:41;;;;;;;5.78;3.02;;;;;;;18.08;70.50;99078.00;1705731;83;21075;-91
2022/07/09 02:45:08;;;;;;;4.65;2.90;;;;;;;18.09;70.61;99077.05;1703851;84;21011;-91
2022/07/09 02:47:35;;;;;;;6.12;2.98;;;;;;;18.12;70.86;99076.50;1704037;84;20999;-91
2022/07/09 02:50:02;;;;;;;4.95;3.10;;;;;;;18.11;70.10;99078.29;1703913;84;21059;-92
2022/07/09 02:52:29;;;;;;;8.08;3.00;;;;;;;18.10;70.64;99081.84;1657968;87;20941;-93
2022/07/09 02:54:56;;;;;;;5.10;2.92;;;;;;;18.09;70.64;99092.84;1653804;87;21033;-92
2022/07/09 02:57:22;;;;;;;4.37;2.65;;;;;;;18.07;70.42;99092.08;1653623;87;21068;-93
2022/07/09 02:59:49;;;;;;;6.83;3.25;;;;;;;18.07;71.04;99097.34;1656062;87;21661;-92
2022/07/09 03:02:16;;;;;;;7.17;3.25;;;;;;;18.07;70.28;99092.55;1653570;87;21021;-92
2022/07/09 03:04:42;;;;;;;6.80;3.17;;;;;;;18.05;70.54;99089.16;1655467;87;21079;-91
2022/07/09 03:07:09;;;;;;;10.72;3.20;;;;;;;18.03;70.24;99096.28;1656589;86;21912;-91
2022/07/09 03:09:36;;;;;;;6.65;3.72;;;;;;;17.99;70.33;99092.13;1653172;87;21041;-92
2022/07/09 03:12:03;;;;;;;7.10;3.55;;;;;;;17.97;71.08;99093.53;1654139;86;21077;-91
2022/07/09 03:14:30;;;;;;;5.80;4.12;;;;;;;17.96;71.28;99096.23;1659397;86;21043;-91
2022/07/09 03:16:57;;;;;;;10.85;4.62;;;;;;;17.97;71.45;99097.95;1655300;86;21048;-91
2022/07/09 03:19:24;;;;;;;7.53;4.17;;;;;;;17.97;71.14;99101.42;1653869;87;21065;-92
2022/07/09 03:21:51;;;;;;;5.33;3.70;;;;;;;17.96;71.54;99098.39;1655079;87;21140;-92
2022/07/09 03:24:18;;;;;;;6.42;3.50;;;;;;;17.96;72.33;99098.39;1655634;87;21063;-92
2022/07/09 03:26:44;;;;;;;7.58;3.45;;;;;;;17.98;72.21;99095.69;1657117;86;21046;-93
2022/07/09 03:29:11;;;;;;;4.80;3.35;;;;;;;18.02;72.44;99099.36;1657161;86;21043;-93
2022/07/09 03:31:38;;;;;;;5.87;3.30;;;;;;;18.06;72.04;99103.99;1654122;87;21047;-94
2022/07/09 03:34:05;;;;;;;5.45;2.92;;;;;;;18.08;71.63;99102.13;1654208;87;21047;-91
2022/07/09 03:36:32;;;;;;;4.55;2.92;;;;;;;18.13;71.89;99103.20;1655345;86;21017;-92
2022/07/09 03:38:59;;;;;;;5.58;3.12;;;;;;;18.19;71.87;99101.54;1656926;85;21571;-92
2022/07/09 03:44:17;;;;;;;6.87;3.35;;;;;;;18.31;71.57;99106.58;1685443;81;21174;31
2022/07/09 03:46:48;;;;;;;6.30;3.40;;;;;;;18.34;71.60;99114.28;1627628;86;21091;-88
2022/07/09 03:52:25;;;;;;;9.95;3.83;;;;;;;18.39;71.50;99120.98;1721326;83;21209;-89
2022/07/09 03:55:01;;;;;;;6.12;3.52;;;;;;;18.42;71.38;99115.56;1723279;83;20997;-89
2022/07/09 03:57:38;;;;;;;9.18;4.08;;;;;;;18.49;71.11;99107.67;1696278;83;20968;-89
2022/07/09 04:00:17;;;;;;;10.05;3.42;;;;;;;18.48;70.35;99109.95;1744366;82;21003;-89
2022/07/09 04:02:58;;;;;;;9.00;3.58;;;;;;;18.53;71.02;99113.62;1757798;81;20960;-89
2022/07/09 04:05:37;;;;;;;15.68;4.12;;;;;;;18.57;70.33;99111.19;1720161;82;21006;-89
2022/07/09 04:08:13;;;;;;;14.45;3.92;;;;;;;18.60;71.75;99116.30;1719202;82;21046;-88
2022/07/09 04:10:48;;;;;;;13.72;3.50;;;;;;;18.67;71.89;99114.14;1720623;82;21003;-88
2022/07/09 04:13:25;;;;;;;5.53;3.47;;;;;;;18.69;70.54;99114.90;1720845;82;20998;-90
2022/07/09 04:16:13;;;;;;;14.47;3.95;;;;;;;18.67;70.10;99120.25;1719169;82;20974;-89
2022/07/09 04:18:49;;;;;;;7.08;3.85;;;;;;;18.64;70.34;99113.86;1744878;81;20966;-88
2022/07/09 04:21:27;;;;;;;;;;;;;;;18.66;71.09;99115.94;1747697;82;21047;-89
2022/07/09 04:24:01;;;;;;;8.78;4.28;;;;;;;18.68;71.70;99118.45;1718898;82;20114;-89
2022/07/09 04:26:40;;;;;;;8.45;3.65;;;;;;;18.73;70.79;99124.79;1718088;83;21060;-89
2022/07/09 04:29:27;;;;;;;8.25;4.33;;;;;;;18.78;70.45;99121.41;1718124;83;20980;-89
2022/07/09 04:32:11;;;;;;;6.72;4.00;;;;;;;18.84;70.29;99117.99;1747740;82;21036;-89
2022/07/09 04:34:46;;;;;;;11.18;3.77;;;;;;;18.93;70.14;99119.70;1747648;81;20968;-89
2022/07/09 04:37:29;;;;;;;8.03;3.92;;;;;;;18.97;70.09;99116.78;1720926;82;21000;-89
2022/07/09 04:42:57;;;;;;;5.62;3.05;;;;;;;19.12;70.02;99125.58;1697540;83;20089;-90
2022/07/09 04:45:24;;;;;;;6.70;3.55;;;;;;;19.19;69.36;99120.78;1735882;82;21072;-88
2022/07/09 04:47:55;;;;;;;8.05;3.42;;;;;;;19.27;69.40;99114.57;1709812;83;21549;-88
2022/07/09 04:50:31;;;;;;;4.80;3.37;;;;;;;19.37;69.31;99124.92;1685956;85;21040;-89
2022/07/09 04:55:47;;;;;;;10.50;4.37;;;;;;;19.51;68.86;99112.70;1650495;83;21055;-87
2022/07/09 04:58:14;;;;;;;6.20;3.35;;;;;;;19.59;68.90;99124.94;1730062;82;21106;-89
2022/07/09 05:06:12;;;;;;;8.43;3.70;;;;;;;19.85;68.56;99135.21;1704849;83;21049;-89
2022/07/09 05:08:39;;;;;;;8.45;3.47;;;;;;;19.88;68.07;99131.55;1720774;83;21002;-89
2022/07/09 05:14:24;;;;;;;7.37;3.40;;;;;;;19.83;67.90;99124.75;1638918;82;21149;-86
2022/07/09 05:17:05;;;;;;;6.25;3.40;;;;;;;19.91;67.59;99129.55;1705580;79;21006;-88
2022/07/09 05:19:57;;;;;;;6.50;2.92;;;;;;;19.99;67.68;99133.03;1661415;83;21098;-88
2022/07/09 05:22:32;;;;;;;13.80;3.02;;;;;;;20.05;67.19;99130.00;1611243;83;21148;-89
2022/07/09 05:25:10;;;;;;;5.33;2.60;;;;;;;20.10;67.07;99133.68;1691885;83;21597;-88
2022/07/09 05:27:47;;;;;;;5.45;2.95;;;;;;;20.19;66.46;99125.16;1740218;79;20998;-89
2022/07/09 05:30:36;;;;;;;5.90;3.33;;;;;;;20.20;66.43;99129.02;1705678;81;21129;-89
2022/07/09 05:36:12;;;;;;;3.92;2.90;;;;;;;20.39;65.63;99135.30;1649551;85;21048;-88
2022/07/09 05:38:49;;;;;;;3.85;2.77;;;;;;;20.42;65.50;99140.84;1623252;85;20983;-88
2022/07/09 05:41:36;;;;;;;8.53;3.02;;;;;;;20.47;65.30;99146.66;1613821;88;21018;-87
2022/07/09 05:44:15;;;;;;;3.77;2.40;;;;;;;20.55;64.99;99143.06;1610739;87;21017;-88
2022/07/09 05:49:46;;;;;;;4.03;2.45;;;;;;;20.76;64.78;99141.30;1646123;83;21095;-88
2022/07/09 05:55:21;;;;;;;5.30;3.00;;;;;;;21.01;61.67;99140.03;1655155;83;21088;-89
2022/07/09 05:57:57;;;;;;;5.72;3.30;;;;;;;21.10;62.82;99152.25;1645808;86;21077;-89
2022/07/09 06:00:49;;;;;;;6.10;3.02;;;;;;;21.10;62.92;99145.64;1650316;85;21109;-89
2022/07/09 06:03:19;;;;;;;6.10;2.85;;;;;;;21.12;61.79;99149.87;1631104;85;21069;-89
2022/07/09 06:09:13;;;;;;;9.03;3.10;;;;;;;21.15;60.26;99153.64;1699932;82;21117;-89
2022/07/09 06:11:40;;;;;;;6.37;2.87;;;;;;;21.09;59.73;99145.25;1726371;83;21088;-88
2022/07/09 06:17:22;;;;;;;4.70;2.85;;;;;;;21.20;59.97;99143.58;1672238;82;21071;-89
2022/07/09 06:19:58;;;;;;;4.40;3.00;;;;;;;21.29;59.70;99146.54;1672025;82;21094;-89
2022/07/09 06:22:34;;;;;;;9.10;3.22;;;;;;;21.30;58.75;99146.92;1730783;80;20977;-89
2022/07/09 06:25:17;;;;;;;6.60;2.87;;;;;;;21.32;58.14;99145.02;1709287;81;20976;-89
2022/07/09 06:28:13;;;;;;;7.10;2.77;;;;;;;21.29;57.04;99138.61;1712969;83;20979;-89
2022/07/09 06:30:48;;;;;;;4.72;2.75;;;;;;;21.35;57.68;99140.37;1732111;81;21012;-89
2022/07/09 06:33:20;;;;;;;5.03;2.97;;;;;;;21.37;56.66;99129.70;1685286;83;21055;-89
2022/07/09 06:35:56;;;;;;;6.00;2.80;;;;;;;21.37;56.66;99129.70;1708198;83;21455;-89
2022/07/09 06:38:30;;;;;;;5.60;2.85;;;;;;;21.38;57.38;99132.70;1709883;82;21113;-87
2022/07/09 06:41:10;;;;;;;8.23;3.27;;;;;;;21.40;56.20;99132.12;1707261;83;21014;-89
2022/07/09 06:43:54;;;;;;;5.55;2.50;;;;;;;21.46;56.84;99130.39;1732126;82;20992;-89
2022/07/09 06:46:35;;;;;;;7.10;3.00;;;;;;;21.54;56.62;99129.87;1679300;81;20986;-89
2022/07/09 06:49:12;;;;;;;4.97;2.90;;;;;;;21.80;56.83;99130.67;1704738;81;21014;-89
2022/07/09 06:51:56;;;;;;;6.10;2.87;;;;;;;21.80;56.83;99130.67;1637446;84;21529;31
2022/07/09 06:57:51;;;;;;;7.17;3.60;;;;;;;21.98;56.82;99121.41;1524132;93;21057;-89
2022/07/09 07:00:31;;;;;;;6.22;3.22;;;;;;;22.05;55.70;99125.32;1565134;90;21088;-90
2022/07/09 07:03:24;;;;;;;6.57;3.73;;;;;;;22.12;55.70;99128.36;1553752;89;21122;-89
2022/07/09 07:05:55;;;;;;;8.03;3.37;;;;;;;22.20;54.66;99129.13;1578733;91;21036;-90
2022/07/09 07:08:35;;;;;;;5.70;3.10;;;;;;;22.25;54.24;99128.36;1578530;89;21032;-90
2022/07/09 07:11:21;;;;;;;5.90;3.17;;;;;;;22.29;54.42;99128.99;1577389;91;20999;-89
2022/07/09 07:14:01;;;;;;;8.05;3.20;;;;;;;22.22;54.21;99131.19;1577087;90;21095;-89
2022/07/09 07:16:36;;;;;;;8.20;3.12;;;;;;;22.35;53.87;99132.03;1540346;89;21077;-88
2022/07/09 07:19:16;;;;;;;5.37;3.10;;;;;;;22.48;54.36;99137.73;1602410;88;21104;-88
2022/07/09 07:21:57;;;;;;;6.08;2.62;;;;;;;22.62;54.42;99131.80;1633917;86;21157;-89
2022/07/09 07:24:32;;;;;;;5.83;2.90;;;;;;;22.75;54.42;99134.86;1633914;86;21080;-89
2022/07/09 07:27:13;;;;;;;7.87;3.47;;;;;;;22.87;54.16;99131.28;1633641;86;21077;-89
2022/07/09 07:29:46;;;;;;;5.35;2.90;;;;;;;23.03;54.24;99130.50;1611052;88;21052;-89
2022/07/09 07:32:21;;;;;;;4.30;2.90;;;;;;;23.19;54.05;99128.85;1633885;87;20993;-89
2022/07/09 07:34:55;;;;;;;6.22;3.20;;;;;;;23.25;53.53;99131.52;1633951;86;21131;-89
2022/07/09 07:37:38;;;;;;;5.87;2.95;;;;;;;23.35;53.37;99127.67;1612103;86;21064;-90
2022/07/09 07:40:23;;;;;;;6.12;3.17;;;;;;;23.39;52.58;99123.33;1613830;88;20985;-89
2022/07/09 07:42:59;;;;;;;6.45;2.65;;;;;;;23.40;52.78;99130.34;1633891;87;20981;-90
2022/07/09 07:45:31;;;;;;;5.78;2.70;;;;;;;23.39;52.70;99130.45;1643868;85;21026;-89
2022/07/09 07:48:22;;;;;;;12.00;2.70;;;;;;;23.49;52.94;99130.58;1676443;85;21018;-90
2022/07/09 07:50:57;;;;;;;7.40;2.70;;;;;;;23.59;52.76;99128.89;1670277;85;21028;-88
2022/07/09 07:53:31;;;;;;;5.45;2.60;;;;;;;23.72;51.78;99132.77;1720695;83;21544;-89
2022/07/09 07:56:02;;;;;;;8.55;2.95;;;;;;;23.75;51.72;99137.82;1723905;83;21047;-89
2022/07/09 07:58:44;;;;;;;8.35;2.87;;;;;;;23.79;51.16;99137.48;1695609;83;21044;-89
2022/07/09 08:01:20;;;;;;;7.75;3.05;;;;;;;23.92;51.46;99134.70;1671462;83;21087;-89
2022/07/09 08:04:13;;;;;;;3.75;2.72;;;;;;;24.00;51.24;99141.58;1701449;83;21055;-89
2022/07/09 08:06:46;;;;;;;4.50;2.75;;;;;;;24.04;50.21;99134.70;1727698;83;21051;-90
2022/07/09 08:12:52;;;;;;;6.28;2.95;;;;;;;24.13;48.80;99136.59;1697713;83;20995;-90
2022/07/09 08:15:27;;;;;;;4.05;2.55;;;;;;;24.08;49.53;99123.70;1653188;84;21038;-89
2022/07/09 08:18:01;;;;;;;5.40;2.50;;;;;;;24.17;49.67;99126.09;1704858;82;21022;-90
2022/07/09 08:20:39;;;;;;;4.85;3.27;;;;;;;24.25;49.81;99126.80;1684411;84;21071;-89
2022/07/09 08:23:18;;;;;;;5.78;2.90;;;;;;;24.24;49.39;99127.78;1696628;83;21098;-90
2022/07/09 08:25:49;;;;;;;7.00;3.05;;;;;;;24.25;48.81;99125.47;1674076;85;21051;-89
2022/07/09 08:28:28;;;;;;;4.78;2.77;;;;;;;24.24;48.77;99125.96;1636143;86;20975;-89
2022/07/09 08:31:03;;;;;;;5.47;2.70;;;;;;;24.25;49.22;99122.32;1657389;86;21052;-90
2022/07/09 08:33:46;;;;;;;9.73;2.92;;;;;;;24.29;49.30;99122.92;1658415;87;21000;-90
2022/07/09 08:36:22;;;;;;;5.35;2.92;;;;;;;24.41;49.34;99124.11;1669911;86;20967;-91
2022/07/09 08:38:53;;;;;;;5.95;3.02;;;;;;;24.51;48.83;99122.03;1664974;85;20996;-89
2022/07/09 08:41:38;;;;;;;5.33;2.83;;;;;;;24.61;48.59;99113.66;1687406;83;20995;-90
2022/07/09 08:44:20;;;;;;;5.42;2.87;;;;;;;24.68;48.82;99116.17;1692088;83;21004;-91
2022/07/09 08:46:58;;;;;;;7.83;3.08;;;;;;;24.78;48.41;99116.25;1694079;84;20991;-90
2022/07/09 08:49:29;;;;;;;5.58;2.65;;;;;;;24.89;48.22;99120.19;1646589;85;21067;-90
2022/07/09 08:52:03;;;;;;;;;;;;;;;25.01;47.61;99124.96;1671429;85;20993;-88
2022/07/09 08:57:36;;;;;;;4.67;2.60;;;;;;;24.87;46.78;99119.94;1683245;81;21245;-81
2022/07/09 09:03:09;;;;;;;5.37;2.95;;;;;;;24.98;47.62;99112.73;1702118;82;21053;-88
2022/07/09 09:09:33;;;;;;;5.90;2.85;;;;;;;25.14;47.47;99120.75;1765478;81;21084;-90
2022/07/09 09:12:11;;;;;;;5.40;3.10;;;;;;;25.28;47.49;99116.95;1767394;81;21038;-90
2022/07/09 09:15:03;;;;;;;4.50;2.70;;;;;;;25.40;46.34;99115.39;1677987;84;21055;-89
2022/07/09 09:17:47;;;;;;;5.62;2.70;;;;;;;25.60;46.88;99115.02;1702712;82;22794;-88
2022/07/09 09:20:19;;;;;;;5.25;2.87;;;;;;;25.80;46.65;99104.41;1747699;82;21005;-89
2022/07/09 09:23:10;;;;;;;4.53;2.67;;;;;;;26.05;46.30;99105.78;1722690;82;20999;-89
2022/07/09 09:35:16;;;;;;;5.55;2.83;;;;;;;26.85;45.46;99097.72;1678445;83;21651;-88
2022/07/09 09:37:49;;;;;;;5.53;2.92;;;;;;;27.02;44.58;99090.80;1686358;85;21091;-90
2022/07/09 09:40:49;;;;;;;5.60;2.58;;;;;;;27.16;44.40;99090.36;1668285;85;21059;-88
2022/07/09 09:46:42;;;;;;;5.03;2.95;;;;;;;27.58;42.28;99085.45;1699780;84;21131;-90
2022/07/09 09:49:54;;;;;;;5.08;2.90;;;;;;;27.70;42.90;99075.41;1731385;81;21114;-90
2022/07/09 09:56:25;;;;;;;4.60;2.47;;;;;;;27.93;41.61;99076.36;1778468;81;20982;-91
2022/07/09 10:02:35;;;;;;;5.58;2.50;;;;;;;28.06;41.91;99073.34;1686285;82;21058;-90
2022/07/09 10:05:08;;;;;;;4.28;2.37;;;;;;;28.00;40.03;99070.77;1689733;85;21010;-89
2022/07/09 10:07:42;;;;;;;3.55;2.10;;;;;;;28.10;40.69;99062.70;1689879;85;21034;-90
2022/07/09 10:10:23;;;;;;;3.77;2.45;;;;;;;28.12;40.04;99055.37;1614279;83;21175;-88
2022/07/09 10:12:53;;;;;;;6.58;3.08;;;;;;;28.06;40.24;99054.14;1686665;84;21042;-88
2022/07/09 10:15:27;;;;;;;4.62;2.58;;;;;;;27.99;39.93;99055.72;1684615;84;21075;-89
2022/07/09 10:17:55;;;;;;;6.28;2.70;;;;;;;27.95;39.63;99046.33;1684886;84;21026;-88
2022/07/09 10:24:00;;;;;;;6.20;2.60;;;;;;;28.02;39.73;99046.59;1679542;83;21107;-90
2022/07/09 10:27:09;;;;;;;4.12;2.70;;;;;;;28.13;40.10;99041.00;1615399;86;21061;-89
2022/07/09 10:39:30;;;;;;;5.08;2.20;;;;;;;28.20;39.70;99034.56;1708617;81;21070;-90
2022/07/09 10:42:20;;;;;;;5.33;2.35;;;;;;;28.31;39.05;99028.97;1714327;82;21073;-90
2022/07/09 10:44:56;;;;;;;5.62;2.52;;;;;;;28.32;37.93;99027.48;1715073;82;21058;-91
2022/07/09 10:50:48;;;;;;;3.87;2.60;;;;;;;28.52;38.88;99026.84;1699388;83;21095;-90
2022/07/09 10:53:34;;;;;;;5.83;3.22;;;;;;;28.66;38.06;99031.30;1675931;85;20996;-90
2022/07/09 10:56:19;;;;;;;4.92;2.95;;;;;;;28.56;38.30;99028.72;1676379;85;21131;-90
2022/07/09 11:01:45;;;;;;;5.22;2.72;;;;;;;27.85;39.76;99024.98;1687228;85;20986;-89
2022/07/09 11:04:34;;;;;;;4.45;2.60;;;;;;;27.59;40.80;99022.20;1678185;86;21027;-90
2022/07/09 11:07:10;;;;;;;5.35;2.95;;;;;;;27.01;41.82;99033.10;1653060;86;21031;-89
2022/07/09 11:09:37;;;;;;;3.98;2.70;;;;;;;26.52;42.73;99034.48;1677820;86;21527;-88
2022/07/09 11:12:07;;;;;;;6.90;2.92;;;;;;;26.28;43.50;99037.11;1678873;86;21035;-89
2022/07/09 11:14:51;;;;;;;4.90;2.80;;;;;;;26.26;44.19;99039.08;1666629;86;21015;-88
2022/07/09 11:17:29;;;;;;;4.90;3.33;;;;;;;26.13;44.19;99032.67;1645188;86;20948;-88
2022/07/09 11:20:20;;;;;;;9.10;4.87;;;;;;;26.11;46.60;99031.97;1661805;86;21034;-88
2022/07/09 11:22:56;;;;;;;8.73;4.00;;;;;;;25.88;45.01;99031.84;1654665;86;21049;-88
2022/07/09 11:25:29;;;;;;;5.17;3.20;;;;;;;25.75;44.84;99026.78;1652146;85;21098;-87
2022/07/09 11:27:58;;;;;;;5.37;3.15;;;;;;;25.76;44.74;99020.46;1643520;85;21059;-88
2022/07/09 11:30:37;;;;;;;5.37;3.00;;;;;;;25.79;43.37;99023.70;1665702;86;21005;-88
2022/07/09 11:33:05;;;;;;;5.12;3.20;;;;;;;25.80;40.73;99018.73;1673157;86;21009;-88
2022/07/09 11:35:36;;;;;;;5.45;3.33;;;;;;;25.98;41.43;99010.08;1659110;85;21013;-88
2022/07/09 11:41:19;;;;;;;7.40;3.70;;;;;;;26.01;40.26;99006.32;1649068;83;21012;-88
2022/07/09 11:43:54;;;;;;;5.58;3.00;;;;;;;26.18;40.54;98999.81;1711616;82;21036;-89
2022/07/09 11:46:35;;;;;;;5.10;2.72;;;;;;;26.29;40.17;98997.48;1690015;80;21068;-90
2022/07/09 11:49:23;;;;;;;7.22;3.00;;;;;;;26.45;39.94;98996.06;1661045;83;21020;-89
2022/07/09 11:52:30;;;;;;;6.97;3.00;;;;;;;26.79;40.27;98981.28;1664735;83;21016;-89
2022/07/09 11:55:31;;;;;;;5.17;2.72;;;;;;;27.34;39.74;98983.20;1658770;81;21149;-89
2022/07/09 11:58:09;;;;;;;6.07;3.07;;;;;;;27.84;39.83;98973.91;1618500;85;21088;-89
2022/07/09 12:00:41;;;;;;;3.83;2.62;;;;;;;28.46;39.11;98967.78;1640704;87;21318;-88
2022/07/09 12:03:08;;;;;;;5.97;2.60;;;;;;;28.77;37.29;98972.20;1673253;86;21052;-88
2022/07/09 12:05:48;;;;;;;7.75;3.00;;;;;;;28.96;34.62;98967.94;1617596;81;21118;-89
2022/07/09 12:08:32;;;;;;;5.05;2.90;;;;;;;29.10;36.51;98970.52;1674952;81;21006;-90
2022/07/09 12:11:13;;;;;;;4.35;2.55;;;;;;;29.23;34.63;98967.44;1624215;85;21066;-90
2022/07/09 12:13:41;;;;;;;4.67;2.62;;;;;;;29.39;33.07;98972.53;1663325;83;21829;-89
2022/07/09 12:16:08;;;;;;;4.80;2.45;;;;;;;29.48;33.23;98968.34;1660866;86;21052;-89
2022/07/09 12:18:38;;;;;;;4.70;2.45;;;;;;;29.47;32.40;98963.17;1661088;86;21070;-90
2022/07/09 12:21:06;;;;;;;3.83;2.45;;;;;;;29.45;34.27;98966.02;1662890;85;21058;-89
2022/07/09 12:23:33;;;;;;;4.25;3.15;;;;;;;29.59;33.65;98953.83;1681660;84;21040;-89
2022/07/09 12:26:01;;;;;;;5.65;2.50;;;;;;;29.72;33.04;98962.27;1676025;85;21009;-88
2022/07/09 12:28:29;;;;;;;4.12;2.60;;;;;;;29.72;33.75;98960.93;1657494;86;21587;-88
2022/07/09 12:30:58;;;;;;;4.30;2.50;;;;;;;29.80;32.85;98953.38;1625767;87;20993;-89
2022/07/09 12:33:31;;;;;;;4.65;2.33;;;;;;;29.94;33.85;98950.55;1639365;87;21059;-89
2022/07/09 12:36:08;;;;;;;5.08;2.50;;;;;;;29.98;33.37;98948.38;1658507;84;21186;-89
2022/07/09 12:39:02;;;;;;;5.42;2.65;;;;;;;30.04;33.25;98951.73;1649152;85;21149;-89
2022/07/09 12:41:34;;;;;;;6.53;2.70;;;;;;;29.61;33.21;98958.52;1684821;83;21049;-88
2022/07/09 12:44:05;;;;;;;5.87;3.00;;;;;;;28.78;33.41;98940.94;1667288;85;21026;-89
2022/07/09 12:46:36;;;;;;;4.75;2.65;;;;;;;28.59;34.17;98944.66;1667721;85;21020;-89
2022/07/09 12:49:10;;;;;;;5.42;2.90;;;;;;;28.23;34.89;98944.23;1667940;84;21022;-89
2022/07/09 12:51:41;;;;;;;6.50;3.00;;;;;;;28.00;35.94;98945.20;1683037;85;21466;-88
2022/07/09 12:54:09;;;;;;;5.90;3.08;;;;;;;27.80;36.87;98933.80;1682922;85;21071;-88
2022/07/09 12:56:36;;;;;;;4.85;2.80;;;;;;;27.84;36.78;98929.83;1682748;85;21000;-87
2022/07/09 12:59:03;;;;;;;5.42;2.90;;;;;;;27.61;36.37;98928.09;1682807;85;21027;-88
2022/07/09 13:01:37;;;;;;;5.47;3.00;;;;;;;27.33;36.99;98929.97;1662808;84;21757;-88
2022/07/09 13:04:24;;;;;;;6.12;2.83;;;;;;;27.28;36.82;98926.92;1639704;83;22839;-88
2022/07/09 13:06:59;;;;;;;5.15;2.92;;;;;;;27.33;36.79;98925.97;1718464;83;20997;-89
2022/07/09 13:09:34;;;;;;;5.67;2.95;;;;;;;27.29;36.45;98927.25;1718242;83;21053;-89
2022/07/09 13:12:14;;;;;;;5.22;2.58;;;;;;;27.15;36.34;98929.39;1709873;82;20963;-89
2022/07/09 13:14:49;;;;;;;3.70;2.70;;;;;;;26.99;37.57;98931.36;1658776;85;20999;-89
2022/07/09 13:17:22;;;;;;;5.10;3.05;;;;;;;27.01;37.71;98927.22;1689450;84;21211;-88
2022/07/09 13:19:52;;;;;;;7.58;3.22;;;;;;;26.72;37.67;98929.53;1658413;85;21082;-89
2022/07/09 13:22:22;;;;;;;;;;;;;;;26.67;38.32;98924.28;1714971;82;21034;-89
2022/07/09 13:24:55;;;;;;;5.47;2.90;;;;;;;26.58;38.54;98929.50;1712418;84;20195;-88
2022/07/09 13:27:32;;;;;;;5.30;3.12;;;;;;;26.39;39.49;98927.67;1683678;84;20952;-89
2022/07/09 13:30:04;;;;;;;6.10;3.00;;;;;;;26.46;39.50;98922.62;1688769;84;21029;-87
2022/07/09 13:32:34;;;;;;;5.10;2.90;;;;;;;26.56;38.86;98923.44;1699474;83;21001;-88
2022/07/09 13:35:01;;;;;;;6.30;2.92;;;;;;;26.51;39.08;98922.19;1717477;84;21006;-87
2022/07/09 13:37:30;;;;;;;5.20;2.80;;;;;;;26.58;39.11;98928.16;1693047;84;21057;-87
2022/07/09 13:39:59;;;;;;;4.75;2.90;;;;;;;26.65;38.91;98911.09;1716628;84;20999;-88